LEVXLSZA

Guest
Details From LEVX - Vigo
To LSZA - Lugano
Flight Number -
Tags Generated
Created
Modified
Stats Distance 788 nm / 1,460 km
Max Altitude 0 ft / 0 m
Waypoints 5
Social Downloads 2
Likes 0
Share VATSIM

Download

Looking for another format? Having issues loading an existing format? Contact us
Advertisement - Login to hide

Notes

Generated

Route

LEVX DOSUL SFC LUGAN LSZA

ID Type Via Altitude Latitude Longitude Leg Dist Tot Dist Heading (true) Name
O LEVX APT - 0 ft / 0 m 42.22128˚ -8.62966˚ - 0 nm - -
DOSUL FIX - 0 ft / 0 m 43.68055˚ -3.31667˚ 249 nm 249 nm 68° / 71° -
SFC VOR - 0 ft / 0 m 45.06647˚ 2.99075˚ 283 nm 532 nm 71° / 75° SAINT FLOUR/COLTINES VOR
LUGAN FIX - 0 ft / 0 m 46.00416˚ 8.90889˚ 255 nm 787 nm 75° / 79° -
O LSZA APT - 0 ft / 0 m 45.99853˚ 8.90776˚ 0 nm 788 nm 188° / 188° Lugano

Altitude Profile

Advertisement - Login to hide

Weather


0- 5 10 15 20 25 30 35+ Temperature / ° C

Clouds and Precipitation
Forecast for 2017-12-15 18:00 UTC. Updated 43 minutes ago

Ground ~20,000 ft ~40,000 ft Winds

LEVX

Details ICAO LEVX (VGO)
Name Vigo
Region Spain
Timezone Europe/Madrid (UTC+1.0)
Stats Elevation 855 ft / 261 m (AMSL)
Location 42.231894° -8.626774°
Runways 1
Magnetic Variation 2.390° W

METAR

LEVX 151600Z 35006KT 320V030 9999 SCT032 SCT050 10/05 Q1018 NOSIG

Decode

TAF

TAF LEVX 151100Z 1512/1612 34005KT 9999 SCT005 BKN020 TX11/1514Z TN02/1606Z PROB30 TEMPO 1603/1609 0800 BCFG BKN002

Decode

Departure Runways

ID Width Length Bearing (true) Bearing (mag) Surface Threshold Offset Overrun Length
02 148 ft / 45 m 7,905 ft / 2,409 m 11.38° 13.77° Asphalt 0 ft / 0 m 164 ft / 50 m
20 148 ft / 45 m 7,905 ft / 2,409 m 191.38° 193.77° Asphalt 0 ft / 0 m 164 ft / 50 m

LSZA

Details ICAO LSZA (LUG)
Name Lugano
Region Switzerland
Timezone Europe/Zurich (UTC+1.0)
Stats Elevation 915 ft / 279 m (AMSL)
Location 46.004275° 8.910579°
Runways 1
Magnetic Variation 2.424° E

METAR

LSZA 151550Z VRB02KT CAVOK 03/01 Q0998 NOSIG

Decode

TAF

Not found

Destination Runways

ID Width Length Bearing (true) Bearing (mag) Surface Threshold Offset Overrun Length
01 98 ft / 30 m 4,430 ft / 1,350 m 18.79° 16.37° Asphalt 361 ft / 110 m 0 ft / 0 m
19 98 ft / 30 m 4,430 ft / 1,350 m 198.79° 196.37° Asphalt 673 ft / 205 m 0 ft / 0 m

Approach Navaids

Runway Type Ident Frequency Range Bearing (true) Bearing (mag) Slope Elevation
01 Localiser ILU 111.50 MHz 18 nm / 33 km 18.79° 16.37° - 928 ft / 283 m (AMSL)
01 Glidescope ILU 111.50 MHz 10 nm / 19 km 19.99° 17.57° 6.00° 928 ft / 283 m (AMSL)
01 DME ILU 111.50 MHz 18 nm / 33 km - - - 928 ft / 283 m (AMSL)